createdAt,value
2019-02-08T00:00:28.320Z,25.60
2019-02-08T00:02:56.828Z,22.63
2019-02-08T00:05:25.232Z,24.70
2019-02-08T00:07:53.819Z,20.90
2019-02-08T00:10:22.300Z,21.60
2019-02-08T00:12:51.886Z,20.20
2019-02-08T00:15:21.753Z,20.43
2019-02-08T00:17:50.277Z,20.63
2019-02-08T00:20:22.335Z,21.10
2019-02-08T00:22:50.775Z,19.77
2019-02-08T00:25:23.150Z,17.30
2019-02-08T00:27:51.566Z,20.03
2019-02-08T00:30:25.540Z,19.73
2019-02-08T00:32:54.020Z,21.33
2019-02-08T00:35:22.461Z,21.97
2019-02-08T00:37:50.911Z,18.73
2019-02-08T00:40:20.835Z,26.43
2019-02-08T00:42:49.339Z,29.77
2019-02-08T00:45:20.495Z,27.33
2019-02-08T00:47:48.890Z,27.73
2019-02-08T00:50:30.534Z,24.70
2019-02-08T00:52:58.922Z,25.77
2019-02-08T00:55:27.322Z,25.20
2019-02-08T00:57:56.142Z,25.57
2019-02-08T01:00:24.618Z,25.83
2019-02-08T01:02:54.146Z,27.10
2019-02-08T01:05:24.891Z,28.23
2019-02-08T01:07:53.359Z,26.83
2019-02-08T01:10:27.307Z,27.37
2019-02-08T01:12:56.235Z,27.23
2019-02-08T01:15:26.749Z,26.13
2019-02-08T01:17:55.243Z,27.03
2019-02-08T01:20:25.042Z,27.80
2019-02-08T01:22:53.960Z,26.53
2019-02-08T01:25:30.670Z,25.70
2019-02-08T01:27:59.431Z,26.07
2019-02-08T01:30:33.162Z,28.97
2019-02-08T01:33:01.599Z,29.40
2019-02-08T01:35:29.992Z,27.23
2019-02-08T01:37:59.934Z,27.10
2019-02-08T01:40:36.840Z,25.17
2019-02-08T01:43:06.476Z,22.80
2019-02-08T01:45:34.867Z,23.47
2019-02-08T01:48:03.314Z,26.47
2019-02-08T01:50:31.795Z,27.30
2019-02-08T01:53:00.433Z,29.00
2019-02-08T01:55:29.130Z,28.87
2019-02-08T01:57:57.530Z,29.70
2019-02-08T02:00:33.374Z,25.57
2019-02-08T02:03:02.408Z,24.87
2019-02-08T02:05:30.803Z,23.27
2019-02-08T02:07:59.236Z,21.33
2019-02-08T02:10:33.042Z,20.00
2019-02-08T02:13:01.604Z,17.17
2019-02-08T02:15:30.041Z,18.83
2019-02-08T02:17:59.554Z,25.23
2019-02-08T02:20:39.341Z,22.73
2019-02-08T02:23:09.035Z,19.50
2019-02-08T02:25:37.436Z,18.13
2019-02-08T02:28:06.390Z,17.20
2019-02-08T02:30:36.512Z,18.17
2019-02-08T02:33:10.520Z,18.30
2019-02-08T02:35:39.066Z,15.00
2019-02-08T02:38:07.544Z,13.53
2019-02-08T02:40:35.987Z,14.07
2019-02-08T02:43:04.523Z,15.10
2019-02-08T02:45:34.951Z,18.87
2019-02-08T02:48:04.215Z,20.83
2019-02-08T02:50:32.736Z,22.87
2019-02-08T02:53:01.230Z,25.30
2019-02-08T02:55:30.815Z,31.13
2019-02-08T02:57:59.304Z,32.30
2019-02-08T03:00:33.926Z,37.33
2019-02-08T03:03:02.634Z,37.40
2019-02-08T03:05:31.015Z,33.90
2019-02-08T03:07:59.451Z,28.37
2019-02-08T03:10:27.850Z,24.23
2019-02-08T03:12:56.349Z,21.63
2019-02-08T03:15:25.394Z,19.23
2019-02-08T03:17:53.792Z,21.53
2019-02-08T03:20:24.274Z,23.43
2019-02-08T03:22:52.841Z,22.33
2019-02-08T03:25:25.812Z,21.53
2019-02-08T03:27:54.270Z,19.60
2019-02-08T03:30:34.183Z,27.70
2019-02-08T03:33:02.848Z,30.43
2019-02-08T03:35:31.239Z,26.97
2019-02-08T03:37:59.670Z,27.77
2019-02-08T03:40:31.847Z,24.37
2019-02-08T03:43:00.239Z,22.93
2019-02-08T03:45:30.312Z,20.67
2019-02-08T03:47:59.018Z,17.03
2019-02-08T03:50:27.602Z,16.80
2019-02-08T03:52:56.088Z,17.47
2019-02-08T03:55:25.200Z,17.90
2019-02-08T03:57:53.850Z,18.13
2019-02-08T04:00:32.037Z,17.53
2019-02-08T04:03:00.422Z,16.93
2019-02-08T04:05:28.911Z,21.03
2019-02-08T04:07:57.340Z,20.27
2019-02-08T04:10:25.777Z,22.50
2019-02-08T04:12:54.167Z,19.37
2019-02-08T04:15:25.984Z,19.90
2019-02-08T04:17:54.392Z,20.13
2019-02-08T04:20:28.864Z,20.40
2019-02-08T04:22:58.572Z,19.70
2019-02-08T04:25:26.965Z,17.43
2019-02-08T04:27:55.418Z,19.70
2019-02-08T04:30:28.891Z,18.33
2019-02-08T04:32:58.071Z,15.23
2019-02-08T04:35:26.460Z,15.67
2019-02-08T04:37:54.911Z,14.60
2019-02-08T04:40:24.968Z,15.70
2019-02-08T04:42:53.496Z,20.50
2019-02-08T04:45:22.421Z,18.40
2019-02-08T04:47:51.123Z,19.60
2019-02-08T04:50:22.963Z,47.23
2019-02-08T04:52:51.419Z,43.00
2019-02-08T04:55:19.885Z,32.37
2019-02-08T04:57:48.280Z,31.77
2019-02-08T05:00:28.504Z,30.13
2019-02-08T05:02:57.133Z,34.07
2019-02-08T05:05:25.525Z,32.63
2019-02-08T05:07:54.129Z,31.97
2019-02-08T05:10:33.269Z,32.67
2019-02-08T05:13:01.698Z,27.47
2019-02-08T05:15:30.356Z,29.43
2019-02-08T05:17:58.738Z,34.57
2019-02-08T05:20:32.022Z,32.50
2019-02-08T05:23:01.501Z,35.03
2019-02-08T05:25:30.559Z,38.90
2019-02-08T05:27:59.236Z,42.90
2019-02-08T05:30:30.260Z,37.37
2019-02-08T05:32:59.063Z,42.37
2019-02-08T05:35:27.679Z,44.77
2019-02-08T05:37:56.090Z,45.23
2019-02-08T05:40:24.820Z,48.00
2019-02-08T05:42:53.378Z,48.63
2019-02-08T05:45:24.443Z,49.00
2019-02-08T05:47:52.851Z,47.60
2019-02-08T05:50:27.048Z,46.30
2019-02-08T05:52:55.733Z,46.63
2019-02-08T05:55:26.282Z,51.83
2019-02-08T05:57:54.980Z,48.10
2019-02-08T06:00:48.031Z,53.97
2019-02-08T06:03:16.472Z,51.80
2019-02-08T06:05:45.209Z,52.33
2019-02-08T06:08:13.674Z,44.93
2019-02-08T06:10:42.099Z,40.78
2019-02-08T06:13:10.878Z,37.83
2019-02-08T06:15:39.544Z,37.03
2019-02-08T06:18:09.327Z,37.63
2019-02-08T06:20:37.798Z,40.17
2019-02-08T06:23:07.469Z,39.03
2019-02-08T06:25:36.372Z,40.83
2019-02-08T06:28:05.613Z,40.83
2019-02-08T06:30:34.015Z,41.20
2019-02-08T06:33:02.483Z,43.87
2019-02-08T06:35:31.262Z,41.37
2019-02-08T06:37:59.664Z,40.57
2019-02-08T06:40:37.079Z,36.53
2019-02-08T06:43:05.967Z,35.40
2019-02-08T06:45:34.360Z,34.23
2019-02-08T06:48:03.194Z,36.53
2019-02-08T06:50:31.668Z,30.93
2019-02-08T06:53:00.118Z,29.17
2019-02-08T06:55:28.547Z,31.20
2019-02-08T06:58:01.514Z,30.63
2019-02-08T07:00:31.539Z,32.33
2019-02-08T07:03:04.432Z,31.23
2019-02-08T07:05:50.695Z,32.07
2019-02-08T07:08:27.085Z,28.50
2019-02-08T07:11:03.760Z,29.27
2019-02-08T07:13:50.309Z,28.67
2019-02-08T07:16:29.209Z,29.47
2019-02-08T07:19:08.538Z,35.17
2019-02-08T07:21:47.651Z,31.77
2019-02-08T07:24:18.684Z,22.40
2019-02-08T07:27:01.081Z,19.23
2019-02-08T07:29:43.280Z,16.40
2019-02-08T07:32:25.686Z,17.67
2019-02-08T07:34:56.033Z,17.07
2019-02-08T07:37:34.887Z,16.17
2019-02-08T07:40:22.190Z,16.77
2019-02-08T07:42:58.127Z,16.60
2019-02-08T07:45:44.559Z,16.13
2019-02-08T07:48:20.684Z,16.47
2019-02-08T07:50:56.529Z,15.97
2019-02-08T07:53:26.744Z,16.97
2019-02-08T07:56:13.310Z,19.87
2019-02-08T07:58:55.652Z,17.90
2019-02-08T08:01:40.798Z,17.40
2019-02-08T08:04:20.736Z,16.80
2019-02-08T08:06:53.491Z,17.73
2019-02-08T08:09:26.640Z,18.47
2019-02-08T08:11:57.066Z,19.03
2019-02-08T08:14:36.432Z,16.93
2019-02-08T08:17:09.384Z,19.03
2019-02-08T08:19:56.446Z,18.73
2019-02-08T08:22:26.506Z,20.50
2019-02-08T08:24:57.389Z,20.30
2019-02-08T08:27:27.689Z,17.70
2019-02-08T08:30:03.759Z,17.90
2019-02-08T08:32:33.999Z,17.73
2019-02-08T08:35:29.251Z,18.57
2019-02-08T08:38:23.101Z,17.70
2019-02-08T08:41:00.647Z,20.23
2019-02-08T08:43:47.060Z,20.93
2019-02-08T08:46:24.583Z,21.83
2019-02-08T08:49:21.689Z,20.67
2019-02-08T08:52:05.417Z,22.07
2019-02-08T08:54:54.905Z,21.77
2019-02-08T08:57:26.871Z,23.07
2019-02-08T09:00:14.972Z,25.00
2019-02-08T09:02:55.444Z,25.20
2019-02-08T09:05:52.772Z,27.50
2019-02-08T09:08:42.427Z,26.73
2019-02-08T09:11:29.165Z,24.97
2019-02-08T09:14:09.627Z,23.00
2019-02-08T09:16:59.156Z,21.63
2019-02-08T09:19:39.954Z,20.23
2019-02-08T09:22:17.814Z,22.67
2019-02-08T09:25:06.107Z,21.13
2019-02-08T09:27:59.373Z,21.93
2019-02-08T09:30:49.480Z,23.07
2019-02-08T09:33:37.446Z,23.43
2019-02-08T09:36:29.051Z,25.97
2019-02-08T09:39:35.584Z,42.77
2019-02-08T09:42:25.536Z,37.70
2019-02-08T09:45:03.212Z,24.70
2019-02-08T09:47:43.955Z,24.20
2019-02-08T09:50:18.162Z,23.20
2019-02-08T09:53:15.414Z,23.57
2019-02-08T09:55:59.933Z,26.67
2019-02-08T09:58:40.858Z,34.33
2019-02-08T10:01:34.871Z,36.40
2019-02-08T10:04:23.618Z,28.27
2019-02-08T10:07:04.278Z,27.73
2019-02-08T10:09:55.567Z,25.63
2019-02-08T10:13:00.459Z,21.13
2019-02-08T10:15:32.359Z,20.47
2019-02-08T10:18:32.888Z,20.53
2019-02-08T10:21:23.939Z,20.23
2019-02-08T10:24:01.703Z,20.83
2019-02-08T10:27:10.121Z,24.50
2019-02-08T10:30:16.119Z,22.13
2019-02-08T10:33:09.172Z,22.43
2019-02-08T10:35:40.986Z,21.27
2019-02-08T10:38:18.126Z,22.30
2019-02-08T10:41:04.908Z,21.70
2019-02-08T10:44:11.521Z,21.63
2019-02-08T10:46:58.198Z,22.03
2019-02-08T10:49:44.423Z,23.50
2019-02-08T10:52:49.610Z,23.90
2019-02-08T10:55:39.644Z,29.20
2019-02-08T10:58:26.418Z,25.20
2019-02-08T11:01:19.252Z,26.20
2019-02-08T11:04:02.831Z,27.27
2019-02-08T11:07:07.614Z,23.67
2019-02-08T11:10:12.558Z,22.33
2019-02-08T11:12:59.406Z,21.47
2019-02-08T11:15:46.025Z,23.10
2019-02-08T11:18:37.163Z,23.43
2019-02-08T11:21:05.560Z,22.60
2019-02-08T11:23:34.686Z,22.57
2019-02-08T11:26:03.304Z,23.70
2019-02-08T11:28:32.339Z,22.17
2019-02-08T11:31:01.774Z,23.50
2019-02-08T11:33:30.254Z,20.47
2019-02-08T11:35:59.200Z,13.40
2019-02-08T11:38:27.952Z,14.37
2019-02-08T11:40:56.571Z,12.87
2019-02-08T11:43:25.145Z,12.57
2019-02-08T11:45:54.177Z,12.70
2019-02-08T11:48:23.055Z,11.80
2019-02-08T11:50:51.455Z,12.83
2019-02-08T11:53:20.184Z,12.33
2019-02-08T11:55:48.682Z,13.07
2019-02-08T11:58:17.562Z,12.77
2019-02-08T12:00:47.781Z,11.27
2019-02-08T12:03:16.498Z,12.60
2019-02-08T12:05:45.261Z,12.63
2019-02-08T12:08:13.926Z,11.70
2019-02-08T12:10:42.358Z,11.53
2019-02-08T12:13:11.083Z,14.23
2019-02-08T12:15:39.777Z,14.20
2019-02-08T12:18:08.342Z,12.63
2019-02-08T12:20:36.734Z,13.20
2019-02-08T12:23:06.986Z,11.83
2019-02-08T12:25:36.465Z,12.83
2019-02-08T12:28:04.914Z,12.27
2019-02-08T12:30:36.468Z,14.43
2019-02-08T12:33:06.881Z,13.67
2019-02-08T12:35:35.346Z,14.43
2019-02-08T12:38:04.115Z,13.23
2019-02-08T12:40:32.714Z,14.17
2019-02-08T12:43:01.200Z,14.40
2019-02-08T12:45:29.690Z,15.37
2019-02-08T12:47:58.297Z,15.23
2019-02-08T12:50:29.158Z,15.23
2019-02-08T12:52:57.790Z,15.57
2019-02-08T12:55:26.247Z,15.50
2019-02-08T12:57:55.700Z,19.40
2019-02-08T13:00:27.587Z,18.07
2019-02-08T13:03:01.259Z,16.50
2019-02-08T13:05:31.073Z,19.17
2019-02-08T13:08:00.354Z,17.03
2019-02-08T13:10:38.865Z,15.67
2019-02-08T13:13:11.696Z,17.93
2019-02-08T13:15:40.848Z,15.63
2019-02-08T13:18:09.252Z,16.73
2019-02-08T13:20:37.904Z,15.73
2019-02-08T13:23:07.155Z,15.47
2019-02-08T13:25:35.540Z,13.93
2019-02-08T13:28:04.202Z,15.47
2019-02-08T13:30:36.635Z,14.60
2019-02-08T13:33:05.098Z,15.13
2019-02-08T13:35:35.072Z,14.87
2019-02-08T13:38:03.492Z,13.70
2019-02-08T13:40:34.679Z,15.57
2019-02-08T13:43:03.298Z,15.57
2019-02-08T13:45:31.912Z,14.10
2019-02-08T13:48:00.745Z,11.20
2019-02-08T13:50:33.851Z,11.77
2019-02-08T13:53:02.355Z,13.20
2019-02-08T13:55:30.825Z,14.20
2019-02-08T13:58:00.044Z,13.80
2019-02-08T14:00:31.375Z,14.23
2019-02-08T14:02:59.777Z,13.00
2019-02-08T14:05:28.771Z,12.83
2019-02-08T14:07:57.656Z,13.73
2019-02-08T14:10:26.189Z,13.33
2019-02-08T14:12:54.967Z,13.10
2019-02-08T14:15:25.062Z,13.67
2019-02-08T14:17:53.488Z,14.47
2019-02-08T14:20:24.386Z,14.67
2019-02-08T14:22:55.419Z,14.43
2019-02-08T14:25:23.812Z,14.13
2019-02-08T14:27:52.668Z,14.63
2019-02-08T14:30:27.055Z,15.07
2019-02-08T14:32:56.017Z,15.70
2019-02-08T14:35:24.591Z,14.70
2019-02-08T14:37:54.553Z,16.13
2019-02-08T14:40:24.546Z,16.00
2019-02-08T14:42:53.420Z,17.13
2019-02-08T14:45:21.879Z,16.37
2019-02-08T14:47:50.381Z,16.57
2019-02-08T14:50:21.513Z,16.90
2019-02-08T14:52:50.199Z,16.17
2019-02-08T14:55:19.711Z,17.80
2019-02-08T14:57:48.634Z,17.93
2019-02-08T15:00:22.647Z,16.80
2019-02-08T15:02:51.040Z,16.83
2019-02-08T15:05:22.128Z,17.77
2019-02-08T15:07:50.868Z,18.70
2019-02-08T15:10:24.888Z,18.07
2019-02-08T15:12:53.769Z,18.20
2019-02-08T15:15:22.528Z,17.90
2019-02-08T15:17:51.345Z,17.80
2019-02-08T15:20:28.343Z,18.00
2019-02-08T15:22:56.950Z,27.17
2019-02-08T15:25:25.440Z,35.07
2019-02-08T15:27:54.074Z,29.20
2019-02-08T15:30:25.426Z,27.37
2019-02-08T15:32:54.512Z,59.10
2019-02-08T15:35:25.298Z,72.97
2019-02-08T15:37:53.855Z,89.17
2019-02-08T15:40:29.538Z,96.03
2019-02-08T15:42:58.228Z,92.53
2019-02-08T15:45:26.909Z,91.27
2019-02-08T15:47:55.731Z,91.67
2019-02-08T15:50:24.345Z,88.43
2019-02-08T15:52:54.449Z,97.03
2019-02-08T15:55:26.180Z,102.63
2019-02-08T15:57:54.832Z,117.37
2019-02-08T16:00:28.519Z,113.90
2019-02-08T16:02:57.339Z,107.63
2019-02-08T16:05:25.844Z,115.70
2019-02-08T16:07:54.212Z,113.83
2019-02-08T16:10:24.377Z,114.70
2019-02-08T16:12:52.986Z,115.37
2019-02-08T16:15:29.596Z,123.00
2019-02-08T16:17:58.668Z,124.33
2019-02-08T16:20:29.208Z,119.80
2019-02-08T16:22:59.097Z,123.83
2019-02-08T16:25:32.314Z,118.27
2019-02-08T16:28:01.064Z,101.27
2019-02-08T16:30:36.059Z,104.63
2019-02-08T16:33:07.033Z,121.37
2019-02-08T16:35:35.511Z,125.47
2019-02-08T16:38:04.408Z,120.77
2019-02-08T16:40:32.880Z,130.17
2019-02-08T16:43:02.376Z,123.47
2019-02-08T16:45:40.600Z,100.90
2019-02-08T16:48:14.888Z,114.23
2019-02-08T16:50:44.152Z,132.23
2019-02-08T16:53:14.123Z,134.97
2019-02-08T16:55:42.505Z,128.40
2019-02-08T16:58:12.166Z,135.87
2019-02-08T17:00:42.206Z,135.37
2019-02-08T17:03:14.556Z,147.80
2019-02-08T17:05:43.144Z,143.43
2019-02-08T17:08:12.119Z,137.97
2019-02-08T17:10:40.722Z,139.87
2019-02-08T17:13:09.572Z,143.17
2019-02-08T17:15:38.187Z,134.20
2019-02-08T17:18:07.545Z,142.67
2019-02-08T17:20:38.335Z,124.93
2019-02-08T17:23:07.143Z,116.73
2019-02-08T17:25:35.718Z,109.90
2019-02-08T17:28:05.249Z,109.93
2019-02-08T17:30:33.974Z,124.17
2019-02-08T17:33:02.445Z,160.47
2019-02-08T17:35:31.239Z,179.70
2019-02-08T17:38:00.007Z,162.10
2019-02-08T17:40:34.057Z,157.13
2019-02-08T17:43:02.711Z,144.23
2019-02-08T17:45:32.164Z,101.60
2019-02-08T17:48:01.275Z,103.93
2019-02-08T17:50:29.815Z,116.27
2019-02-08T17:52:58.539Z,135.70
2019-02-08T17:55:28.969Z,131.40
2019-02-08T17:58:03.385Z,124.30
2019-02-08T18:00:47.609Z,107.73
2019-02-08T18:03:16.204Z,137.93
2019-02-08T18:05:44.839Z,122.57
2019-02-08T18:08:13.727Z,119.43
2019-02-08T18:10:42.209Z,88.53
2019-02-08T18:13:10.615Z,106.70
2019-02-08T18:15:39.205Z,193.40
2019-02-08T18:18:10.368Z,260.30
2019-02-08T18:20:48.474Z,196.03
2019-02-08T18:23:16.978Z,186.50
2019-02-08T18:25:45.379Z,246.10
2019-02-08T18:28:14.397Z,130.47
2019-02-08T18:30:42.846Z,132.40
2019-02-08T18:33:11.265Z,163.37
2019-02-08T18:35:39.909Z,143.90
2019-02-08T18:38:08.674Z,146.03
2019-02-08T18:40:37.423Z,130.30
2019-02-08T18:43:06.022Z,125.93
2019-02-08T18:45:37.094Z,133.47
2019-02-08T18:48:07.168Z,221.40
2019-02-08T18:50:47.528Z,232.30
2019-02-08T18:53:16.245Z,230.90
2019-02-08T18:55:45.060Z,239.07
2019-02-08T18:58:18.723Z,273.67
2019-02-08T19:00:49.768Z,201.20
2019-02-08T19:03:18.586Z,147.37
2019-02-08T19:05:47.117Z,134.00
2019-02-08T19:08:16.362Z,115.90
2019-02-08T19:10:45.150Z,117.47
2019-02-08T19:13:14.141Z,124.53
2019-02-08T19:15:42.348Z,130.77
2019-02-08T19:18:11.234Z,558.10
2019-02-08T19:20:39.979Z,565.33
2019-02-08T19:23:08.884Z,409.10
2019-02-08T19:25:40.733Z,360.00
2019-02-08T19:28:10.375Z,379.27
2019-02-08T19:30:40.816Z,282.20
2019-02-08T19:33:09.451Z,206.23
2019-02-08T19:35:38.220Z,166.83
2019-02-08T19:38:08.421Z,155.27
2019-02-08T19:40:45.404Z,155.83
2019-02-08T19:43:14.104Z,206.50
2019-02-08T19:45:42.794Z,146.77
2019-02-08T19:48:12.442Z,142.60
2019-02-08T19:50:45.732Z,140.50
2019-02-08T19:53:14.613Z,226.17
2019-02-08T19:55:44.140Z,180.27
2019-02-08T19:58:12.673Z,206.07
2019-02-08T20:00:45.871Z,178.20
2019-02-08T20:03:14.634Z,149.30
2019-02-08T20:05:43.965Z,129.37
2019-02-08T20:08:13.864Z,139.67
2019-02-08T20:10:45.421Z,136.27
2019-02-08T20:13:14.316Z,131.53
2019-02-08T20:15:42.766Z,133.00
2019-02-08T20:18:11.790Z,136.83
2019-02-08T20:20:40.575Z,123.60
2019-02-08T20:23:09.262Z,108.90
2019-02-08T20:25:37.938Z,120.77
2019-02-08T20:28:06.990Z,141.97
2019-02-08T20:30:35.937Z,145.87
2019-02-08T20:33:04.883Z,149.47
2019-02-08T20:35:33.503Z,165.60
2019-02-08T20:38:02.122Z,159.93
2019-02-08T20:40:35.723Z,141.97
2019-02-08T20:43:04.568Z,142.37
2019-02-08T20:45:34.536Z,148.33
2019-02-08T20:48:06.309Z,150.83
2019-02-08T20:50:34.736Z,145.17
2019-02-08T20:53:04.657Z,162.07
2019-02-08T20:55:33.506Z,157.27
2019-02-08T20:58:02.073Z,161.50
2019-02-08T21:00:36.724Z,163.17
2019-02-08T21:03:13.097Z,147.00
2019-02-08T21:05:42.368Z,159.20
2019-02-08T21:08:12.372Z,158.20
2019-02-08T21:10:41.000Z,165.53
2019-02-08T21:13:10.054Z,170.87
2019-02-08T21:15:38.614Z,151.03
2019-02-08T21:18:07.900Z,149.57
2019-02-08T21:20:36.465Z,159.73
2019-02-08T21:23:05.404Z,155.23
2019-02-08T21:25:35.871Z,147.93
2019-02-08T21:28:05.041Z,132.93
2019-02-08T21:30:33.443Z,127.90
2019-02-08T21:33:01.978Z,124.37
2019-02-08T21:35:30.476Z,122.97
2019-02-08T21:37:58.906Z,121.40
2019-02-08T21:40:31.070Z,120.00
2019-02-08T21:42:59.732Z,118.37
2019-02-08T21:45:30.877Z,124.00
2019-02-08T21:47:59.484Z,117.90
2019-02-08T21:50:28.148Z,111.43
2019-02-08T21:52:56.725Z,109.17
2019-02-08T21:55:27.902Z,109.30
2019-02-08T21:57:56.426Z,132.33
2019-02-08T22:00:30.543Z,137.00
2019-02-08T22:02:59.893Z,124.03
2019-02-08T22:05:30.805Z,110.40
2019-02-08T22:07:59.273Z,98.63
2019-02-08T22:10:28.579Z,97.93
2019-02-08T22:12:57.263Z,99.67
2019-02-08T22:15:31.762Z,115.97
2019-02-08T22:18:00.469Z,108.90
2019-02-08T22:20:29.009Z,115.50
2019-02-08T22:22:57.541Z,127.80
2019-02-08T22:25:28.737Z,121.83
2019-02-08T22:27:57.358Z,143.00
2019-02-08T22:30:27.029Z,160.07
2019-02-08T22:33:00.819Z,157.23
2019-02-08T22:35:29.425Z,155.47
2019-02-08T22:37:58.449Z,142.83
2019-02-08T22:40:27.116Z,105.93
2019-02-08T22:42:55.733Z,89.80
2019-02-08T22:45:41.689Z,84.63
2019-02-08T22:48:10.295Z,94.03
2019-02-08T22:50:38.942Z,80.13
2019-02-08T22:53:08.359Z,79.33
2019-02-08T22:55:37.274Z,78.67
2019-02-08T22:58:08.520Z,100.47
2019-02-08T23:00:41.053Z,108.40
2019-02-08T23:03:11.803Z,109.10
2019-02-08T23:05:45.278Z,98.00
2019-02-08T23:08:11.041Z,104.27
2019-02-08T23:13:34.487Z,111.47
2019-02-08T23:16:02.976Z,112.70
2019-02-08T23:18:31.858Z,105.00
2019-02-08T23:21:00.880Z,104.97
2019-02-08T23:23:29.934Z,93.13
2019-02-08T23:25:58.376Z,75.20
2019-02-08T23:28:27.066Z,78.27
2019-02-08T23:30:55.835Z,71.83
2019-02-08T23:33:24.388Z,73.03
2019-02-08T23:35:52.959Z,76.20
2019-02-08T23:38:21.614Z,82.80
2019-02-08T23:40:50.187Z,72.33
2019-02-08T23:43:18.813Z,74.80
2019-02-08T23:45:47.522Z,83.20
2019-02-08T23:48:15.996Z,81.53
2019-02-08T23:50:44.611Z,84.47
2019-02-08T23:53:13.358Z,78.77
2019-02-08T23:55:41.755Z,77.90
2019-02-08T23:58:10.200Z,85.00
